Time;durP1;ratioP1;P1;durP2;ratioP2;P2;SDS_P1;SDS_P2;PMS_P1;PMS_P2;Temp;Humidity;BMP_temperature;BMP_pressure;BME280_temperature;BME280_humidity;BME280_pressure;Samples;Min_cycle;Max_cycle;Signal;HPM_P1;HPM_P2
2024/04/07 15:31:51;;;;;;;5.68;2.55;;;26.70;71.30;;;;;;5089113;27;1331890;-82
2024/04/07 15:34:37;;;;;;;3.85;2.28;;;26.30;72.80;;;;;;5099094;28;20216;-82
2024/04/07 15:37:33;;;;;;;4.40;2.47;;;26.10;73.70;;;;;;5088022;28;20193;-82
2024/04/07 15:40:19;;;;;;;3.60;2.40;;;26.00;74.30;;;;;;5087508;28;20565;-82
2024/04/07 15:43:09;;;;;;;2.83;2.20;;;25.70;75.20;;;;;;5074583;28;20193;-77
2024/04/07 15:46:04;;;;;;;4.07;2.42;;;25.60;75.90;;;;;;5087327;28;20565;-78
2024/04/07 15:48:51;;;;;;;3.00;2.25;;;25.40;76.40;;;;;;5087775;28;20203;-78
2024/04/07 15:51:38;;;;;;;5.82;2.47;;;25.30;77.10;;;;;;5087215;28;20221;-78
2024/04/07 15:54:26;;;;;;;4.85;2.50;;;25.10;77.40;;;;;;5086637;28;20193;-77
2024/04/07 15:57:17;;;;;;;3.75;2.20;;;25.00;78.00;;;;;;5086961;28;20200;-78
2024/04/07 16:03:12;;;;;;;3.47;2.50;;;24.90;78.60;;;;;;4993890;28;20205;-78
2024/04/07 16:05:59;;;;;;;4.50;2.80;;;24.70;78.90;;;;;;4979884;28;20242;-78
2024/04/07 16:08:45;;;;;;;3.75;2.50;;;24.70;79.80;;;;;;4993148;28;20243;-78
2024/04/07 16:11:31;;;;;;;3.47;2.40;;;24.50;79.90;;;;;;4992877;28;20224;-78
2024/04/07 16:14:18;;;;;;;4.77;2.90;;;24.30;80.70;;;;;;5005207;28;20201;-78
2024/04/07 16:17:04;;;;;;;6.63;2.58;;;24.20;81.50;;;;;;5006089;28;20196;-77
2024/04/07 16:19:50;;;;;;;7.13;2.70;;;24.10;81.70;;;;;;4992493;28;20226;-76
2024/04/07 16:22:37;;;;;;;5.18;2.50;;;23.90;82.30;;;;;;4980511;28;20205;-76
2024/04/07 16:25:23;;;;;;;5.40;2.80;;;23.90;82.40;;;;;;4992946;28;20679;-76
2024/04/07 16:28:09;;;;;;;5.23;2.70;;;23.80;82.90;;;;;;4992446;28;20197;-76
2024/04/07 16:31:28;;;;;;;4.53;2.80;;;23.70;83.50;;;;;;4992656;28;20236;-77
2024/04/07 16:34:17;;;;;;;5.63;3.00;;;23.60;84.20;;;;;;4992991;28;20700;-77
2024/04/07 16:37:03;;;;;;;5.07;2.80;;;23.50;84.50;;;;;;4978828;28;20201;-77
2024/04/07 16:43:36;;;;;;;6.83;2.60;;;23.40;85.60;;;;;;5071343;28;20194;-77
2024/04/07 16:46:22;;;;;;;4.93;2.97;;;23.30;86.00;;;;;;4978628;28;20290;-76
2024/04/07 16:49:10;;;;;;;4.27;2.80;;;23.20;86.50;;;;;;4979548;28;20224;-77
2024/04/07 16:51:57;;;;;;;4.93;2.93;;;23.00;87.20;;;;;;4980055;28;20653;-77
2024/04/07 16:54:46;;;;;;;4.23;2.60;;;23.00;87.80;;;;;;4966348;28;20193;-78
2024/04/07 16:57:33;;;;;;;5.70;3.17;;;22.80;88.60;;;;;;4980090;28;20689;-76
2024/04/07 17:00:19;;;;;;;5.33;3.40;;;22.70;89.10;;;;;;4980104;28;20193;-76
2024/04/07 17:03:27;;;;;;;9.63;3.40;;;22.60;89.70;;;;;;4979509;28;20208;-76
2024/04/07 17:10:07;;;;;;;4.80;3.00;;;22.30;90.40;;;;;;4979249;28;20220;-77
2024/04/07 17:12:54;;;;;;;7.90;3.67;;;22.20;90.90;;;;;;4979284;28;20189;-77
2024/04/07 17:15:43;;;;;;;6.07;3.33;;;22.10;91.20;;;;;;4979207;28;20193;-77
2024/04/07 17:22:21;;;;;;;7.57;3.43;;;21.90;91.70;;;;;;4991167;28;20511;-77
2024/04/07 17:25:11;;;;;;;5.33;3.30;;;21.80;92.10;;;;;;5058866;28;20190;-83
2024/04/07 17:28:53;;;;;;;5.93;3.40;;;21.70;92.20;;;;;;5060304;28;20583;-83
2024/04/07 17:31:40;;;;;;;5.57;3.20;;;21.60;92.60;;;;;;5059863;28;20709;-82
2024/04/07 17:41:52;;;;;;;7.17;3.37;;;21.30;93.70;;;;;;5012648;28;20190;-82
2024/04/07 17:44:40;;;;;;;4.30;3.10;;;21.20;93.90;;;;;;5011559;28;20195;-82
2024/04/07 17:47:27;;;;;;;6.20;3.20;;;21.10;94.20;;;;;;4998290;28;20196;-80
2024/04/07 17:50:14;;;;;;;7.73;3.33;;;21.00;94.40;;;;;;4997556;28;20258;-80
2024/04/07 17:53:00;;;;;;;6.37;3.30;;;20.90;94.60;;;;;;4997412;28;20721;-81
2024/04/07 17:55:48;;;;;;;7.00;3.23;;;20.90;95.00;;;;;;5011098;28;20201;-81
2024/04/07 17:58:34;;;;;;;9.03;3.50;;;20.80;95.20;;;;;;4997896;28;20242;-81
2024/04/07 18:01:21;;;;;;;3.77;2.87;;;20.70;95.50;;;;;;4983763;28;20196;-79
2024/04/07 18:04:08;;;;;;;5.53;3.10;;;20.70;96.00;;;;;;4998520;28;20212;-81
2024/04/07 18:10:55;;;;;;;4.67;3.07;;;20.60;96.40;;;;;;5011268;28;20303;-81
2024/04/07 18:13:44;;;;;;;6.90;3.33;;;20.50;96.90;;;;;;4997609;28;20202;-81
2024/04/07 18:16:31;;;;;;;4.87;3.10;;;20.40;96.90;;;;;;5069749;28;20193;-78
2024/04/07 18:19:17;;;;;;;7.50;3.10;;;20.40;97.10;;;;;;5070965;28;20210;-78
2024/04/07 18:22:10;;;;;;;7.70;3.20;;;20.40;97.40;;;;;;5070775;28;20194;-77
2024/04/07 18:24:57;;;;;;;6.37;3.10;;;20.30;97.80;;;;;;5069602;28;20189;-78
2024/04/07 18:27:43;;;;;;;6.63;3.70;;;20.30;97.80;;;;;;5043388;28;20194;-79
2024/04/07 18:30:32;;;;;;;5.50;3.43;;;20.20;98.10;;;;;;5062366;28;20233;-80
2024/04/07 18:33:59;;;;;;;5.17;3.27;;;20.20;98.20;;;;;;5063059;28;20205;-80
2024/04/07 18:37:13;;;;;;;5.80;3.10;;;20.20;98.50;;;;;;5092052;28;20221;-80
2024/04/07 18:40:00;;;;;;;5.63;3.50;;;20.10;98.70;;;;;;5062086;28;20571;-80
2024/04/07 18:42:46;;;;;;;4.20;2.90;;;20.10;99.20;;;;;;5077187;28;20196;-80
2024/04/07 18:45:51;;;;;;;6.30;3.30;;;20.00;99.40;;;;;;5063813;28;20568;-80
2024/04/07 18:48:38;;;;;;;5.47;3.07;;;20.00;99.50;;;;;;5077030;28;20199;-80
2024/04/07 18:51:44;;;;;;;5.37;3.10;;;20.00;99.60;;;;;;5091679;28;20225;-80
2024/04/07 18:54:30;;;;;;;6.10;3.10;;;19.90;99.80;;;;;;5076369;28;20189;-80
2024/04/07 18:57:17;;;;;;;4.10;3.17;;;19.90;99.90;;;;;;5076264;28;20196;-79
2024/04/07 19:00:15;;;;;;;5.40;3.10;;;19.90;99.90;;;;;;5076447;28;20201;-79
2024/04/07 19:10:33;;;;;;;5.80;3.27;;;19.80;99.90;;;;;;4976950;28;20237;-80
2024/04/07 19:13:20;;;;;;;6.90;4.60;;;19.70;99.90;;;;;;4964110;28;20192;-76
2024/04/07 19:16:10;;;;;;;11.43;6.17;;;19.70;99.90;;;;;;4977528;28;20200;-76
2024/04/07 19:18:56;;;;;;;6.37;3.20;;;19.60;99.90;;;;;;4977419;28;20200;-78
2024/04/07 19:21:43;;;;;;;5.77;3.40;;;19.60;99.90;;;;;;4964215;28;20197;-78
2024/04/07 19:24:29;;;;;;;4.17;2.67;;;19.50;99.90;;;;;;4977083;28;20719;-78
2024/04/07 19:27:25;;;;;;;5.77;3.10;;;19.50;99.90;;;;;;4962913;28;20291;-77
2024/04/07 19:30:13;;;;;;;8.30;3.47;;;19.50;99.90;;;;;;4976606;28;20255;-78
2024/04/07 19:33:47;;;;;;;4.33;3.20;;;19.40;99.90;;;;;;4976897;28;20704;-78
2024/04/07 19:36:52;;;;;;;6.97;3.07;;;19.30;99.90;;;;;;4964035;28;20225;-78
2024/04/07 19:39:39;;;;;;;5.63;3.10;;;19.30;99.90;;;;;;4963380;28;20200;-79
2024/04/07 19:42:25;;;;;;;7.03;3.10;;;19.30;99.90;;;;;;4963922;28;20705;-79
2024/04/07 19:45:29;;;;;;;4.60;2.90;;;19.20;99.90;;;;;;4976763;28;20203;-78
2024/04/07 19:48:17;;;;;;;6.63;3.17;;;19.20;99.90;;;;;;5077398;28;20193;-78
2024/04/07 19:51:04;;;;;;;4.77;2.87;;;19.20;99.90;;;;;;5061251;28;20271;-78
2024/04/07 19:54:11;;;;;;;3.70;2.90;;;19.10;99.90;;;;;;5075596;28;20190;-78
2024/04/07 19:57:06;;;;;;;4.73;2.80;;;19.10;99.90;;;;;;4976847;28;20205;-78
2024/04/07 19:59:53;;;;;;;24.00;5.17;;;19.00;99.90;;;;;;4974700;28;20185;-78
2024/04/07 20:07:00;;;;;;;6.23;2.80;;;18.90;99.90;;;;;;4990566;28;20264;-82
2024/04/07 20:10:02;;;;;;;5.53;3.00;;;18.90;99.90;;;;;;4976533;28;20201;-82
2024/04/07 20:12:48;;;;;;;6.37;2.77;;;18.80;99.90;;;;;;4976511;28;20196;-77
2024/04/07 20:15:34;;;;;;;5.50;2.77;;;18.80;99.90;;;;;;4976388;28;20199;-77
2024/04/07 20:18:21;;;;;;;4.87;3.03;;;18.80;99.90;;;;;;4979175;28;20332;-77
2024/04/07 20:21:26;;;;;;;199.07;113.67;;;18.80;99.90;;;;;;4979573;28;20204;-75
2024/04/07 20:24:15;;;;;;;13.33;9.40;;;18.70;99.90;;;;;;4978977;28;20255;-75
2024/04/07 20:27:01;;;;;;;4.43;3.33;;;18.70;99.90;;;;;;4979961;28;20565;-77
2024/04/07 20:30:40;;;;;;;4.73;3.00;;;18.70;99.90;;;;;;4965814;28;20199;-76
2024/04/07 20:34:24;;;;;;;6.63;3.30;;;18.60;99.90;;;;;;5036369;28;20555;-75
2024/04/07 20:37:58;;;;;;;4.47;2.80;;;18.60;99.90;;;;;;5073214;28;20562;-77
2024/04/07 20:40:47;;;;;;;4.47;3.20;;;18.30;99.90;;;;;;5072215;28;20194;-77
2024/04/07 20:43:33;;;;;;;5.60;3.40;;;18.50;99.90;;;;;;5073330;28;20198;-76
2024/04/07 20:46:44;;;;;;;6.33;3.20;;;18.40;99.90;;;;;;5059164;28;20186;-76
2024/04/07 20:49:33;;;;;;;6.90;3.17;;;18.30;99.90;;;;;;4979464;28;20703;-76
2024/04/07 20:56:13;;;;;;;5.20;3.20;;;18.30;99.90;;;;;;4979494;28;20730;-76
2024/04/07 21:11:48;;;;;;;7.80;3.60;;;18.10;99.90;;;;;;4993183;28;20259;-75
2024/04/07 21:27:53;;;;;;;6.60;3.47;;;17.80;99.90;;;;;;5061730;28;20186;-76
2024/04/07 21:31:42;;;;;;;8.37;3.40;;;17.80;99.90;;;;;;5075609;28;20312;-75
2024/04/07 21:35:24;;;;;;;6.13;3.30;;;17.80;99.90;;;;;;5065213;28;20231;-76
2024/04/07 21:43:16;;;;;;;4.90;3.10;;;17.70;99.90;;;;;;5093047;28;20717;-74
2024/04/07 21:47:04;;;;;;;6.17;3.33;;;17.70;99.90;;;;;;5092826;28;20196;-75
2024/04/07 22:01:12;;;;;;;5.30;3.30;;;17.40;99.90;;;;;;5077897;28;20192;-78
2024/04/07 22:12:40;;;;;;;5.20;3.30;;;17.20;99.90;;;;;;5092111;28;20264;-74
2024/04/07 22:15:42;;;;;;;7.60;3.33;;;17.20;99.90;;;;;;5063703;28;20181;-74
2024/04/07 22:19:06;;;;;;;5.43;3.30;;;17.10;99.90;;;;;;5078861;28;20211;-74
2024/04/07 22:22:20;;;;;;;6.97;3.50;;;17.10;99.90;;;;;;5091950;28;20193;-73
2024/04/07 22:25:47;;;;;;;6.13;3.30;;;17.10;99.90;;;;;;5077563;28;20194;-73
2024/04/07 22:28:48;;;;;;;5.80;3.30;;;17.00;99.90;;;;;;5076694;28;20196;-73
2024/04/07 22:31:38;;;;;;;5.77;3.80;;;17.10;99.90;;;;;;5070855;28;20237;-73
2024/04/07 22:43:11;;;;;;;6.87;3.63;;;17.00;99.90;;;;;;5072334;28;20257;-73
2024/04/07 22:46:08;;;;;;;4.87;3.60;;;17.00;99.90;;;;;;5057088;28;20672;-73
2024/04/07 22:53:08;;;;;;;7.00;3.47;;;16.90;99.90;;;;;;5071925;28;20285;-73
2024/04/07 22:56:13;;;;;;;5.17;3.30;;;16.90;99.90;;;;;;5071062;28;20182;-73
2024/04/07 23:03:44;;;;;;;8.43;3.33;;;16.80;99.90;;;;;;5071827;28;20630;-73
2024/04/07 23:06:31;;;;;;;5.53;3.53;;;16.80;99.90;;;;;;5056114;28;20198;-72
2024/04/07 23:10:19;;;;;;;5.70;3.20;;;16.80;99.90;;;;;;5071197;28;20587;-72
2024/04/07 23:13:06;;;;;;;5.00;3.47;;;16.80;99.90;;;;;;5070337;28;20197;-73
2024/04/07 23:16:27;;;;;;;5.90;3.57;;;16.80;99.90;;;;;;5057175;28;20201;-72
2024/04/07 23:26:58;;;;;;;6.63;3.30;;;16.70;99.90;;;;;;5071543;28;20218;-72
2024/04/07 23:30:47;;;;;;;6.40;3.10;;;16.70;99.90;;;;;;5071535;28;20249;-73
2024/04/07 23:34:01;;;;;;;5.43;3.50;;;16.60;99.90;;;;;;5091265;28;20632;-73
2024/04/07 23:37:53;;;;;;;7.93;3.87;;;16.60;99.90;;;;;;5091002;28;20182;-72
2024/04/07 23:41:44;;;;;;;7.63;3.80;;;16.60;99.90;;;;;;5063749;28;20193;-73
2024/04/07 23:48:35;;;;;;;5.13;3.80;;;16.50;99.90;;;;;;5091026;28;20310;-73
2024/04/07 23:51:28;;;;;;;7.03;4.20;;;16.40;99.90;;;;;;5076414;28;20703;-73
2024/04/07 23:58:14;;;;;;;7.17;3.83;;;16.20;99.90;;;;;;5094815;28;20178;-73
